Time;durP1;ratioP1;P1;durP2;ratioP2;P2;SDS_P1;SDS_P2;PMS_P1;PMS_P2;Temp;Humidity;BMP_temperature;BMP_pressure;BME280_temperature;BME280_humidity;BME280_pressure;Samples;Min_cycle;Max_cycle;Signal;HPM_P1;HPM_P2
2023/01/09 00:00:17;;;;;;;2.40;2.20;;;5.50;99.90;;;;;;5075397;28;20196;-69
2023/01/09 00:03:23;;;;;;;4.63;2.23;;;5.50;99.90;;;;;;5075897;28;20631;-69
2023/01/09 00:05:52;;;;;;;5.80;2.50;;;5.50;99.90;;;;;;5074107;28;20554;-68
2023/01/09 00:08:20;;;;;;;2.53;2.37;;;5.50;99.90;;;;;;5075268;28;20191;-69
2023/01/09 00:10:49;;;;;;;3.00;2.53;;;5.40;99.90;;;;;;5075157;28;20680;-69
2023/01/09 00:13:19;;;;;;;3.07;2.43;;;5.50;99.90;;;;;;5075075;28;20211;-68
2023/01/09 00:15:48;;;;;;;3.70;2.50;;;5.40;99.90;;;;;;5075051;28;20192;-68
2023/01/09 00:18:16;;;;;;;3.20;2.13;;;5.40;99.90;;;;;;5073698;28;20250;-68
2023/01/09 00:20:44;;;;;;;4.50;2.63;;;5.40;99.90;;;;;;5074962;28;20188;-69
2023/01/09 00:23:13;;;;;;;5.17;2.50;;;5.40;99.90;;;;;;5073628;28;20184;-68
2023/01/09 00:25:41;;;;;;;2.43;2.33;;;5.40;99.90;;;;;;5074872;28;20200;-68
2023/01/09 00:28:10;;;;;;;6.73;3.50;;;5.40;99.90;;;;;;5073723;28;20211;-68
2023/01/09 00:30:39;;;;;;;2.80;2.50;;;5.40;99.90;;;;;;5075232;28;20199;-69
2023/01/09 00:33:09;;;;;;;4.10;2.50;;;5.40;99.90;;;;;;5074344;28;20667;-69
2023/01/09 00:35:37;;;;;;;3.40;2.47;;;5.40;99.90;;;;;;5074626;28;20228;-69
2023/01/09 00:38:09;;;;;;;5.13;2.37;;;5.40;99.90;;;;;;5073401;28;20643;-69
2023/01/09 00:40:37;;;;;;;3.40;2.23;;;5.40;99.90;;;;;;5074520;28;20188;-69
2023/01/09 00:43:06;;;;;;;4.27;2.50;;;5.40;99.90;;;;;;5074587;28;20634;-68
2023/01/09 00:45:34;;;;;;;3.10;2.40;;;5.40;99.90;;;;;;5073561;28;20196;-68
2023/01/09 00:48:09;;;;;;;2.77;2.57;;;5.40;99.90;;;;;;5074501;28;20616;-69
2023/01/09 00:50:38;;;;;;;2.50;2.27;;;5.30;99.90;;;;;;5074489;28;20546;-69
2023/01/09 00:53:11;;;;;;;2.53;2.33;;;5.30;99.90;;;;;;5074204;28;20536;-69
2023/01/09 00:55:40;;;;;;;4.50;2.57;;;5.30;99.90;;;;;;5074224;28;20195;-68
2023/01/09 00:58:09;;;;;;;5.87;2.50;;;5.40;99.90;;;;;;5074480;28;20243;-69
2023/01/09 01:00:37;;;;;;;2.80;2.60;;;5.40;99.90;;;;;;5074083;28;20207;-69
2023/01/09 01:03:07;;;;;;;2.40;2.30;;;5.30;99.90;;;;;;5074167;28;20195;-69
2023/01/09 01:08:21;;;;;;;3.20;2.60;;;5.30;99.90;;;;;;5073981;28;20199;-69
2023/01/09 01:10:49;;;;;;;2.80;2.60;;;5.40;99.90;;;;;;5073996;28;20677;-69
2023/01/09 01:13:17;;;;;;;5.17;2.30;;;5.40;99.90;;;;;;5072650;28;20218;-70
2023/01/09 01:15:47;;;;;;;5.03;2.27;;;5.40;99.90;;;;;;5072621;28;20191;-69
2023/01/09 01:18:16;;;;;;;6.60;2.50;;;5.40;99.90;;;;;;5073637;28;20238;-68
2023/01/09 01:20:45;;;;;;;3.97;2.40;;;5.50;99.90;;;;;;5073951;28;20192;-69
2023/01/09 01:23:13;;;;;;;2.90;2.50;;;5.50;99.90;;;;;;5072482;28;20267;-69
2023/01/09 01:25:43;;;;;;;3.57;2.67;;;5.50;99.90;;;;;;5072457;28;20192;-68
2023/01/09 01:28:12;;;;;;;2.60;2.40;;;5.50;99.90;;;;;;5073784;28;20192;-68
2023/01/09 01:30:42;;;;;;;4.67;2.07;;;5.40;99.90;;;;;;5073877;28;20194;-69
2023/01/09 01:33:11;;;;;;;5.13;2.47;;;5.40;99.90;;;;;;5072309;28;20701;-68
2023/01/09 01:35:41;;;;;;;6.37;2.30;;;5.40;99.90;;;;;;5072909;28;20646;-68
2023/01/09 01:38:09;;;;;;;3.57;2.20;;;5.50;99.90;;;;;;5073778;28;20657;-68
2023/01/09 01:40:39;;;;;;;4.77;2.43;;;5.50;99.90;;;;;;5073762;28;20215;-68
2023/01/09 01:43:12;;;;;;;2.50;2.30;;;5.50;99.90;;;;;;5073451;28;20206;-68
2023/01/09 01:45:40;;;;;;;3.93;2.03;;;5.50;99.90;;;;;;5072144;28;20203;-68
2023/01/09 01:48:11;;;;;;;6.70;2.20;;;5.60;99.90;;;;;;5072107;28;20199;-68
2023/01/09 01:50:45;;;;;;;5.63;2.03;;;5.60;99.90;;;;;;5072206;28;20191;-68
2023/01/09 01:53:16;;;;;;;2.10;2.00;;;5.60;99.90;;;;;;5073285;28;20203;-68
2023/01/09 01:55:51;;;;;;;3.27;2.03;;;5.70;99.90;;;;;;5071834;28;20698;-68
2023/01/09 01:58:20;;;;;;;7.37;2.53;;;5.70;99.90;;;;;;5072215;28;20575;-68
2023/01/09 02:05:32;;;;;;;7.20;2.00;;;5.80;99.90;;;;;;5073309;28;20164;-70
2023/01/09 02:08:02;;;;;;;6.33;2.10;;;5.90;99.90;;;;;;5035369;28;20291;-69
2023/01/09 02:10:31;;;;;;;4.23;2.13;;;6.00;99.90;;;;;;5053591;28;20196;-69
2023/01/09 02:13:00;;;;;;;6.00;2.10;;;5.90;99.90;;;;;;5053613;28;20209;-68
2023/01/09 02:15:35;;;;;;;3.97;1.70;;;6.00;99.90;;;;;;5053148;28;20204;-68
2023/01/09 02:18:40;;;;;;;3.03;1.70;;;6.00;99.90;;;;;;5051932;28;20223;-68
2023/01/09 02:21:16;;;;;;;3.10;1.90;;;6.10;99.90;;;;;;5053442;28;20259;-69
2023/01/09 02:24:18;;;;;;;4.77;1.90;;;6.20;99.90;;;;;;5053118;28;20636;-69
2023/01/09 02:27:03;;;;;;;1.83;1.70;;;6.20;99.90;;;;;;5051649;28;20191;-68
2023/01/09 02:30:10;;;;;;;8.67;2.23;;;6.20;99.90;;;;;;5052995;28;20188;-68
2023/01/09 02:32:47;;;;;;;9.63;2.03;;;6.30;99.90;;;;;;5051710;28;20639;-68
2023/01/09 02:35:29;;;;;;;5.23;1.93;;;6.30;99.90;;;;;;5053150;28;20188;-68
2023/01/09 02:38:05;;;;;;;5.20;1.90;;;6.30;99.90;;;;;;5052972;28;20276;-68
2023/01/09 02:40:38;;;;;;;2.03;1.87;;;6.30;99.90;;;;;;5052880;28;20195;-68
2023/01/09 02:43:08;;;;;;;2.67;1.83;;;6.40;99.90;;;;;;5052867;28;20673;-67
2023/01/09 02:45:36;;;;;;;4.80;1.80;;;6.40;99.90;;;;;;5051946;28;20200;-68
2023/01/09 02:48:08;;;;;;;9.03;1.80;;;6.40;99.90;;;;;;5053138;28;20223;-68
2023/01/09 02:50:46;;;;;;;1.97;1.80;;;6.40;99.90;;;;;;5052788;28;20667;-68
2023/01/09 02:53:43;;;;;;;5.40;1.83;;;6.40;99.90;;;;;;5052710;28;20567;-68
2023/01/09 02:56:28;;;;;;;6.80;1.87;;;6.40;99.90;;;;;;5072814;28;20213;-68
2023/01/09 02:59:15;;;;;;;6.03;2.40;;;6.40;99.90;;;;;;5052703;28;20624;-69
2023/01/09 03:01:53;;;;;;;10.33;1.80;;;6.30;99.90;;;;;;5051367;28;20548;-68
2023/01/09 03:04:32;;;;;;;4.90;2.10;;;6.30;99.90;;;;;;5051345;28;20655;-68
2023/01/09 03:07:07;;;;;;;6.37;1.97;;;6.30;99.90;;;;;;5052941;28;20528;-68
2023/01/09 03:09:40;;;;;;;6.73;1.63;;;6.20;99.90;;;;;;5055970;28;20199;-68
2023/01/09 03:12:13;;;;;;;2.57;1.80;;;6.20;99.90;;;;;;5056199;28;20204;-68
2023/01/09 03:14:46;;;;;;;6.73;2.20;;;6.20;99.90;;;;;;5056157;28;20217;-68
2023/01/09 03:17:20;;;;;;;4.20;1.97;;;6.20;99.90;;;;;;5056102;28;20221;-68
2023/01/09 03:19:52;;;;;;;2.87;1.83;;;6.20;99.90;;;;;;5056093;28;20196;-69
2023/01/09 03:22:21;;;;;;;4.47;1.97;;;6.20;99.90;;;;;;5056053;28;20659;-68
2023/01/09 03:24:49;;;;;;;4.30;1.90;;;6.20;99.90;;;;;;5055106;28;20185;-67
2023/01/09 03:27:18;;;;;;;6.27;2.20;;;6.20;99.90;;;;;;5054701;28;20243;-67
2023/01/09 03:29:46;;;;;;;5.20;1.80;;;6.10;99.90;;;;;;5055884;28;20208;-68
2023/01/09 03:32:14;;;;;;;5.43;2.00;;;6.10;99.90;;;;;;5055830;28;20196;-68
2023/01/09 03:34:46;;;;;;;7.60;2.00;;;6.10;99.90;;;;;;5054542;28;20223;-68
2023/01/09 03:37:16;;;;;;;7.73;2.00;;;6.10;99.90;;;;;;5056106;28;20608;-69
2023/01/09 03:39:44;;;;;;;6.60;2.00;;;6.10;99.90;;;;;;5054486;28;20197;-68
2023/01/09 03:42:12;;;;;;;6.67;1.90;;;6.20;99.90;;;;;;5055673;28;20203;-67
2023/01/09 03:44:41;;;;;;;7.77;1.87;;;6.20;99.90;;;;;;5054751;28;20189;-68
2023/01/09 03:47:09;;;;;;;3.93;1.80;;;6.20;99.90;;;;;;5055959;28;20196;-68
2023/01/09 03:49:37;;;;;;;7.33;2.07;;;6.20;99.90;;;;;;5055475;28;20200;-69
2023/01/09 03:52:06;;;;;;;5.97;1.73;;;6.20;99.90;;;;;;5070978;28;20201;-68
2023/01/09 03:54:36;;;;;;;5.23;2.53;;;6.20;99.90;;;;;;5054492;28;20215;-69
2023/01/09 03:57:04;;;;;;;10.60;2.10;;;6.20;99.90;;;;;;5055699;28;20193;-68
2023/01/09 03:59:32;;;;;;;9.83;2.80;;;6.20;99.90;;;;;;5055361;28;20189;-68
2023/01/09 04:02:00;;;;;;;4.77;2.00;;;6.30;99.90;;;;;;5055595;28;20548;-68
2023/01/09 04:04:31;;;;;;;11.33;2.20;;;6.40;99.90;;;;;;5055777;28;20191;-68
2023/01/09 04:07:00;;;;;;;8.90;2.10;;;6.40;99.90;;;;;;5055404;28;20258;-69
2023/01/09 04:09:28;;;;;;;6.07;1.97;;;6.50;99.90;;;;;;5055641;28;20203;-69
2023/01/09 04:11:58;;;;;;;4.93;2.10;;;6.60;99.90;;;;;;5053934;28;20204;-68
2023/01/09 04:14:27;;;;;;;10.23;2.50;;;6.70;99.90;;;;;;5055233;28;20193;-68
2023/01/09 04:16:56;;;;;;;4.33;2.07;;;6.80;99.90;;;;;;5053829;28;20188;-69
2023/01/09 04:19:24;;;;;;;11.73;2.30;;;6.80;99.90;;;;;;5054940;28;20188;-67
2023/01/09 04:21:52;;;;;;;7.07;2.30;;;6.90;99.90;;;;;;5053735;28;20215;-67
2023/01/09 04:24:21;;;;;;;9.33;2.10;;;7.00;99.90;;;;;;5054861;28;20616;-67
2023/01/09 04:26:49;;;;;;;6.90;2.50;;;7.00;99.90;;;;;;5054839;28;20288;-68
2023/01/09 04:29:19;;;;;;;9.57;2.40;;;7.00;99.90;;;;;;5054999;28;20203;-68
2023/01/09 04:31:47;;;;;;;6.87;2.20;;;7.10;99.90;;;;;;5054777;28;20193;-68
2023/01/09 04:34:15;;;;;;;9.03;2.43;;;7.10;99.90;;;;;;5054826;28;20263;-68
2023/01/09 04:36:44;;;;;;;6.03;2.13;;;7.10;99.90;;;;;;5054807;28;20193;-67
2023/01/09 04:39:12;;;;;;;9.23;2.70;;;7.10;99.90;;;;;;5054530;28;20185;-68
2023/01/09 04:41:49;;;;;;;14.07;2.77;;;7.10;99.90;;;;;;5054991;28;20193;-68
2023/01/09 04:44:22;;;;;;;11.40;2.60;;;7.10;99.90;;;;;;5053508;28;20655;-67
2023/01/09 04:46:50;;;;;;;8.20;2.13;;;7.10;99.90;;;;;;5054693;28;20189;-67
2023/01/09 04:49:18;;;;;;;7.60;2.20;;;7.10;99.90;;;;;;5054340;28;20201;-68
2023/01/09 04:51:47;;;;;;;7.93;2.00;;;7.10;99.90;;;;;;5053182;28;20203;-68
2023/01/09 04:54:16;;;;;;;7.63;2.10;;;7.10;99.90;;;;;;5052904;28;20217;-68
2023/01/09 04:56:44;;;;;;;7.10;2.70;;;7.10;99.90;;;;;;5053624;28;20664;-67
2023/01/09 04:59:13;;;;;;;8.67;2.37;;;7.20;99.90;;;;;;5052968;28;20246;-68
2023/01/09 05:01:42;;;;;;;4.10;2.27;;;7.10;99.90;;;;;;5054281;28;20196;-68
2023/01/09 05:04:12;;;;;;;3.60;2.27;;;7.10;99.90;;;;;;5036292;28;20184;-68
2023/01/09 05:06:41;;;;;;;5.70;2.40;;;7.00;99.90;;;;;;5053997;28;20646;-67
2023/01/09 05:09:10;;;;;;;8.87;2.67;;;7.00;99.90;;;;;;5036145;28;20670;-68
2023/01/09 05:11:41;;;;;;;9.70;2.60;;;7.00;99.90;;;;;;5052943;28;20203;-68
2023/01/09 05:14:09;;;;;;;7.63;2.47;;;6.90;99.90;;;;;;5054156;28;20265;-68
2023/01/09 05:16:38;;;;;;;11.13;2.60;;;6.90;99.90;;;;;;5053868;28;20201;-68
2023/01/09 05:19:08;;;;;;;9.63;2.70;;;6.80;99.90;;;;;;5053925;28;20235;-68
2023/01/09 05:21:37;;;;;;;7.30;2.40;;;6.90;99.90;;;;;;5053959;28;20678;-69
2023/01/09 05:24:08;;;;;;;3.20;1.97;;;6.90;99.90;;;;;;5036015;28;20189;-68
2023/01/09 05:26:36;;;;;;;13.30;2.30;;;6.80;99.90;;;;;;5086197;28;20200;-68
2023/01/09 05:29:05;;;;;;;10.47;2.40;;;6.80;99.90;;;;;;5053649;28;20228;-68
2023/01/09 05:31:33;;;;;;;6.37;2.10;;;6.80;99.90;;;;;;5051818;28;20201;-67
2023/01/09 05:34:02;;;;;;;4.50;2.10;;;6.90;99.90;;;;;;5052403;28;20235;-68
2023/01/09 05:36:31;;;;;;;12.70;2.57;;;6.90;99.90;;;;;;5052212;28;20618;-67
2023/01/09 05:39:01;;;;;;;5.33;2.30;;;6.90;99.90;;;;;;5053518;28;20276;-68
2023/01/09 05:41:29;;;;;;;10.17;2.60;;;6.90;99.90;;;;;;5053574;28;20678;-68
2023/01/09 05:43:59;;;;;;;8.17;2.30;;;6.90;99.90;;;;;;5054233;28;20648;-68
2023/01/09 05:46:27;;;;;;;11.20;2.47;;;7.00;99.90;;;;;;5052176;28;20207;-68
2023/01/09 05:48:56;;;;;;;10.77;2.50;;;7.00;99.90;;;;;;5052147;28;20697;-68
2023/01/09 05:51:24;;;;;;;7.00;2.33;;;7.00;99.90;;;;;;5052061;28;20228;-68
2023/01/09 05:53:54;;;;;;;13.27;2.50;;;7.00;99.90;;;;;;5053363;28;20203;-69
2023/01/09 05:56:22;;;;;;;5.00;1.87;;;7.00;99.90;;;;;;5035381;28;20208;-68
2023/01/09 05:58:51;;;;;;;8.63;2.27;;;7.00;99.90;;;;;;5053419;28;20295;-69
2023/01/09 06:01:19;;;;;;;5.73;2.57;;;7.00;99.90;;;;;;5052405;28;20284;-69
2023/01/09 06:03:51;;;;;;;5.27;2.10;;;7.00;99.90;;;;;;5053310;28;20193;-67
2023/01/09 06:06:19;;;;;;;7.73;2.07;;;7.00;99.90;;;;;;5053800;28;20195;-68
2023/01/09 06:08:47;;;;;;;11.77;2.10;;;7.00;99.90;;;;;;5052603;28;20205;-68
2023/01/09 06:11:17;;;;;;;3.43;2.07;;;7.10;99.90;;;;;;5053548;28;20200;-68
2023/01/09 06:13:45;;;;;;;7.03;2.40;;;7.00;99.90;;;;;;5035637;28;20204;-68
2023/01/09 06:16:14;;;;;;;10.17;2.37;;;7.10;99.90;;;;;;5052922;28;20231;-69
2023/01/09 06:18:42;;;;;;;6.43;2.33;;;7.10;99.90;;;;;;5051643;28;20278;-68
2023/01/09 06:21:10;;;;;;;6.83;2.13;;;7.00;99.90;;;;;;5053230;28;20295;-68
2023/01/09 06:23:39;;;;;;;10.60;2.40;;;7.00;99.90;;;;;;5052896;28;20192;-68
2023/01/09 06:26:07;;;;;;;7.90;2.40;;;7.00;99.90;;;;;;5052988;28;20181;-68
2023/01/09 06:28:37;;;;;;;5.43;2.33;;;7.00;99.90;;;;;;5052964;28;20270;-68
2023/01/09 06:31:05;;;;;;;7.13;2.30;;;7.00;99.90;;;;;;5053246;28;20204;-68
2023/01/09 06:33:34;;;;;;;6.43;2.10;;;7.10;99.90;;;;;;5052999;28;20189;-68
2023/01/09 06:36:02;;;;;;;6.17;2.03;;;7.10;99.90;;;;;;5053091;28;20682;-68
2023/01/09 06:38:30;;;;;;;3.63;2.10;;;7.20;99.90;;;;;;5051836;28;20188;-68
2023/01/09 06:40:59;;;;;;;3.80;1.77;;;7.20;99.90;;;;;;5053334;28;20193;-69
2023/01/09 06:43:27;;;;;;;8.33;2.47;;;7.20;99.90;;;;;;5070535;28;20204;-68
2023/01/09 06:45:57;;;;;;;6.10;2.07;;;7.30;99.90;;;;;;5076889;28;20192;-68
2023/01/09 06:48:25;;;;;;;4.43;1.83;;;7.30;99.90;;;;;;5075276;28;20223;-69
2023/01/09 06:50:54;;;;;;;6.27;2.50;;;7.30;99.90;;;;;;5076492;28;20194;-68
2023/01/09 06:53:22;;;;;;;6.80;2.23;;;7.30;99.90;;;;;;5076950;28;20193;-68
2023/01/09 06:55:51;;;;;;;5.93;1.83;;;7.30;99.90;;;;;;5076410;28;20211;-68
2023/01/09 06:58:19;;;;;;;7.80;2.40;;;7.30;99.90;;;;;;5109048;28;20212;-68
2023/01/09 07:00:48;;;;;;;5.27;2.10;;;7.30;99.90;;;;;;5076398;28;20200;-68
2023/01/09 07:03:20;;;;;;;4.30;1.93;;;7.30;99.90;;;;;;5058487;28;20200;-68
2023/01/09 07:05:49;;;;;;;4.83;2.17;;;7.30;99.90;;;;;;5108941;28;20191;-68
2023/01/09 07:08:18;;;;;;;4.73;2.00;;;7.20;99.90;;;;;;5075018;28;20192;-68
2023/01/09 07:10:46;;;;;;;2.17;1.90;;;7.20;99.90;;;;;;5109273;28;20188;-68
2023/01/09 07:13:15;;;;;;;4.90;1.60;;;7.10;99.90;;;;;;5075945;28;20543;-68
2023/01/09 07:15:43;;;;;;;3.90;1.80;;;7.10;99.90;;;;;;5075219;28;20222;-68
2023/01/09 07:18:12;;;;;;;9.53;1.97;;;7.20;99.90;;;;;;5076006;28;20247;-68
2023/01/09 07:20:42;;;;;;;2.80;1.63;;;7.10;99.90;;;;;;5076142;28;20241;-68
2023/01/09 07:23:12;;;;;;;2.67;1.83;;;7.20;99.90;;;;;;5076311;28;20195;-68
2023/01/09 07:25:41;;;;;;;5.53;1.70;;;7.30;99.90;;;;;;5077136;28;20189;-68
2023/01/09 07:28:09;;;;;;;3.80;1.83;;;7.20;99.90;;;;;;5075945;28;20266;-68
2023/01/09 07:30:38;;;;;;;3.67;1.83;;;7.10;99.90;;;;;;5075935;28;20187;-68
2023/01/09 07:33:06;;;;;;;3.40;1.57;;;7.10;99.90;;;;;;5075966;28;20195;-68
2023/01/09 07:35:34;;;;;;;3.57;1.90;;;7.10;99.90;;;;;;5074475;28;20231;-68
2023/01/09 07:38:04;;;;;;;4.60;1.80;;;7.10;99.90;;;;;;5074924;28;20242;-68
2023/01/09 07:40:32;;;;;;;3.10;1.80;;;7.10;99.90;;;;;;5075813;28;20527;-67
2023/01/09 07:43:01;;;;;;;7.33;1.83;;;7.00;99.90;;;;;;5075898;28;20198;-67
2023/01/09 07:45:29;;;;;;;5.10;1.70;;;7.00;99.90;;;;;;5074492;28;20226;-68
2023/01/09 07:48:00;;;;;;;2.70;1.80;;;7.00;99.90;;;;;;5074447;28;20196;-68
2023/01/09 07:50:28;;;;;;;2.30;1.60;;;7.10;99.90;;;;;;5075613;28;20196;-68
2023/01/09 07:52:56;;;;;;;4.20;2.50;;;7.10;99.90;;;;;;5075745;28;20196;-67
2023/01/09 07:55:26;;;;;;;4.10;1.80;;;7.20;99.90;;;;;;5074892;28;20188;-68
2023/01/09 07:57:54;;;;;;;5.17;2.20;;;7.20;99.90;;;;;;5075418;28;20303;-67
2023/01/09 08:00:23;;;;;;;8.03;3.17;;;7.30;99.90;;;;;;5075376;28;20675;-68
2023/01/09 08:02:52;;;;;;;9.60;4.40;;;7.20;99.90;;;;;;5075359;28;20192;-68
2023/01/09 08:05:21;;;;;;;5.50;2.40;;;7.30;99.90;;;;;;5074063;28;20192;-68
2023/01/09 08:07:50;;;;;;;5.47;2.07;;;7.30;99.90;;;;;;5075299;28;20188;-68
2023/01/09 08:14:58;;;;;;;4.70;1.70;;;7.40;99.90;;;;;;5075405;28;20247;-68
2023/01/09 08:17:26;;;;;;;2.33;1.70;;;7.40;99.90;;;;;;5075109;28;20310;-67
2023/01/09 08:19:55;;;;;;;4.47;1.80;;;7.40;99.90;;;;;;5057047;28;20188;-68
2023/01/09 08:22:23;;;;;;;5.30;1.90;;;7.30;99.90;;;;;;5074965;28;20196;-68
2023/01/09 08:24:52;;;;;;;8.10;1.87;;;7.40;99.90;;;;;;5074897;28;20288;-68
2023/01/09 08:27:20;;;;;;;8.03;2.40;;;7.40;99.90;;;;;;5073606;28;20283;-68
2023/01/09 08:29:48;;;;;;;4.20;1.80;;;7.40;99.90;;;;;;5074800;28;20648;-68
2023/01/09 08:32:18;;;;;;;5.03;2.60;;;7.40;99.90;;;;;;5074768;28;20651;-68
2023/01/09 08:34:46;;;;;;;4.47;1.80;;;7.40;99.90;;;;;;5074693;28;20210;-68
2023/01/09 08:37:15;;;;;;;5.27;1.80;;;7.40;99.90;;;;;;5074555;28;20212;-68
2023/01/09 08:39:43;;;;;;;2.47;1.93;;;7.40;99.90;;;;;;5074905;28;20192;-67
2023/01/09 08:47:45;;;;;;;3.40;1.63;;;7.40;99.90;;;;;;5073212;28;20215;-68
2023/01/09 08:50:14;;;;;;;2.87;1.60;;;7.40;99.90;;;;;;5073227;28;20184;-67
2023/01/09 08:52:43;;;;;;;2.10;2.00;;;7.40;99.90;;;;;;5074639;28;20282;-68
2023/01/09 08:55:11;;;;;;;2.90;1.50;;;7.40;99.90;;;;;;5074973;28;20227;-68
2023/01/09 08:57:48;;;;;;;1.83;1.60;;;7.40;99.90;;;;;;5074027;28;20294;-68
2023/01/09 09:00:17;;;;;;;1.70;1.60;;;7.30;99.90;;;;;;5074183;28;20220;-68
2023/01/09 09:02:51;;;;;;;2.63;1.70;;;7.30;99.90;;;;;;5074132;28;20200;-68
2023/01/09 09:05:20;;;;;;;2.40;1.77;;;7.30;99.90;;;;;;5073652;28;20303;-67
2023/01/09 09:07:49;;;;;;;1.57;1.47;;;7.20;99.90;;;;;;5073983;28;20188;-67
2023/01/09 09:10:20;;;;;;;1.80;1.37;;;7.20;99.90;;;;;;5074000;28;20195;-68
2023/01/09 09:12:50;;;;;;;2.67;1.63;;;7.10;99.90;;;;;;5073971;28;20196;-67
2023/01/09 09:15:22;;;;;;;4.67;1.70;;;7.20;99.90;;;;;;5074178;28;20806;-67
2023/01/09 09:17:54;;;;;;;4.57;1.80;;;7.20;99.90;;;;;;5073662;28;20285;-68
2023/01/09 09:20:24;;;;;;;1.93;1.40;;;7.20;99.90;;;;;;5074374;28;20176;-68
2023/01/09 09:27:36;;;;;;;1.80;1.70;;;7.20;99.90;;;;;;5073950;28;20165;-67
2023/01/09 09:30:06;;;;;;;5.60;2.10;;;7.20;99.90;;;;;;5073717;28;20274;-68
2023/01/09 09:32:34;;;;;;;1.90;1.80;;;7.20;99.90;;;;;;5073876;28;20188;-67
2023/01/09 09:35:05;;;;;;;3.57;2.30;;;7.30;99.90;;;;;;5073619;28;20246;-68
2023/01/09 09:37:34;;;;;;;4.13;2.00;;;7.30;99.90;;;;;;5072344;28;20570;-68
2023/01/09 09:40:04;;;;;;;4.10;2.00;;;7.30;99.90;;;;;;5073584;28;20192;-67
2023/01/09 09:45:55;;;;;;;3.97;1.70;;;7.40;99.90;;;;;;5074020;28;20195;-67
2023/01/09 09:48:35;;;;;;;3.47;1.90;;;7.40;99.90;;;;;;5073439;28;20211;-68
2023/01/09 09:51:43;;;;;;;2.07;1.87;;;7.50;99.90;;;;;;5073638;28;20188;-68
2023/01/09 09:54:14;;;;;;;3.63;3.30;;;7.50;99.90;;;;;;5068830;28;20212;-69
2023/01/09 09:56:50;;;;;;;10.33;2.10;;;7.50;99.90;;;;;;5073679;28;20679;-68
2023/01/09 09:59:21;;;;;;;3.73;2.33;;;7.50;99.90;;;;;;5073390;28;20210;-68
2023/01/09 10:01:54;;;;;;;3.10;1.83;;;7.50;99.90;;;;;;5074195;28;20199;-67
2023/01/09 10:04:26;;;;;;;4.57;1.80;;;7.60;99.90;;;;;;5073446;28;20527;-68
2023/01/09 10:06:59;;;;;;;4.67;2.20;;;7.60;99.90;;;;;;5072427;28;20287;-68
2023/01/09 10:09:39;;;;;;;3.17;1.70;;;7.50;99.90;;;;;;5073230;28;20192;-68
2023/01/09 10:12:21;;;;;;;3.37;1.60;;;7.50;99.90;;;;;;5071958;28;20184;-68
2023/01/09 10:14:49;;;;;;;5.40;1.97;;;7.50;99.90;;;;;;5072155;28;20199;-68
2023/01/09 10:17:35;;;;;;;4.77;2.13;;;7.50;99.90;;;;;;5074364;28;20235;-67
2023/01/09 10:20:36;;;;;;;2.57;2.17;;;7.50;99.90;;;;;;5076008;28;20253;-68
2023/01/09 10:23:23;;;;;;;4.70;2.30;;;7.40;99.90;;;;;;5072553;28;20283;-68
2023/01/09 10:25:56;;;;;;;3.57;2.10;;;7.50;99.90;;;;;;5077158;28;20198;-69
2023/01/09 10:28:48;;;;;;;8.33;2.20;;;7.50;99.90;;;;;;5075817;28;20223;-68
2023/01/09 10:31:26;;;;;;;7.33;2.10;;;7.40;99.90;;;;;;5075923;28;20649;-68
2023/01/09 10:34:03;;;;;;;5.90;2.30;;;7.40;99.90;;;;;;5075642;28;20192;-68
2023/01/09 10:36:47;;;;;;;3.63;2.13;;;7.50;99.90;;;;;;5077075;28;20576;-68
2023/01/09 10:39:20;;;;;;;2.97;1.80;;;7.60;99.90;;;;;;5076846;28;20262;-68
2023/01/09 10:41:57;;;;;;;3.97;2.07;;;7.60;99.90;;;;;;5077589;28;20253;-67
2023/01/09 10:44:32;;;;;;;3.80;1.73;;;7.60;99.90;;;;;;5075912;28;20187;-68
2023/01/09 10:47:03;;;;;;;3.00;1.60;;;7.60;99.90;;;;;;5075556;28;20527;-68
2023/01/09 10:49:31;;;;;;;2.17;1.80;;;7.60;99.90;;;;;;5076787;28;20279;-67
2023/01/09 10:52:11;;;;;;;2.23;1.57;;;7.60;99.90;;;;;;5076670;28;20199;-67
2023/01/09 10:54:51;;;;;;;1.77;1.63;;;7.60;99.90;;;;;;5076941;28;20192;-68
2023/01/09 10:57:37;;;;;;;1.70;1.60;;;7.60;99.90;;;;;;5076708;28;20215;-67
2023/01/09 11:00:07;;;;;;;7.83;1.70;;;7.70;99.90;;;;;;5075620;28;20333;-68
2023/01/09 11:02:38;;;;;;;5.03;1.80;;;7.70;99.90;;;;;;5077197;28;20669;-68
2023/01/09 11:05:50;;;;;;;6.70;2.10;;;7.80;99.90;;;;;;5056965;28;20184;-67
2023/01/09 11:08:26;;;;;;;4.03;2.07;;;8.00;99.90;;;;;;5055816;28;20173;-67
2023/01/09 11:10:58;;;;;;;5.97;1.90;;;8.10;99.90;;;;;;5055655;28;20184;-67
2023/01/09 11:13:30;;;;;;;6.23;2.00;;;8.10;99.90;;;;;;5056420;28;20185;-67
2023/01/09 11:16:06;;;;;;;3.90;1.97;;;8.20;99.90;;;;;;5056837;28;20188;-67
2023/01/09 11:18:37;;;;;;;2.40;2.20;;;8.30;99.90;;;;;;5056093;28;20579;-67
2023/01/09 11:21:34;;;;;;;3.87;2.30;;;8.30;99.90;;;;;;5072160;28;20196;-67
2023/01/09 11:24:28;;;;;;;4.17;2.30;;;8.20;99.90;;;;;;5056318;28;20192;-67
2023/01/09 11:27:23;;;;;;;4.30;2.10;;;8.30;99.90;;;;;;5055144;28;20197;-67
2023/01/09 11:30:19;;;;;;;4.47;2.00;;;8.20;99.90;;;;;;5053124;28;20201;-67
2023/01/09 11:32:48;;;;;;;6.10;2.00;;;8.10;99.90;;;;;;5055061;28;20185;-67
2023/01/09 11:35:26;;;;;;;3.13;2.07;;;8.10;99.90;;;;;;5054608;28;20196;-68
2023/01/09 11:38:07;;;;;;;7.83;2.60;;;8.10;99.90;;;;;;5071349;28;20307;-68
2023/01/09 11:40:48;;;;;;;6.73;2.27;;;8.20;99.90;;;;;;5054446;28;20196;-68
2023/01/09 11:43:32;;;;;;;6.40;2.20;;;8.20;99.90;;;;;;5055843;28;20219;-68
2023/01/09 11:46:03;;;;;;;6.57;2.27;;;8.50;99.90;;;;;;5054498;28;20201;-67
2023/01/09 11:48:38;;;;;;;3.63;2.00;;;8.70;99.90;;;;;;5071255;28;20200;-67
2023/01/09 11:51:18;;;;;;;7.10;2.57;;;8.80;99.90;;;;;;5055837;28;20196;-68
2023/01/09 11:54:12;;;;;;;8.47;2.10;;;8.90;99.90;;;;;;5055550;28;20196;-67
2023/01/09 11:56:41;;;;;;;6.27;2.30;;;8.90;99.90;;;;;;5074475;28;20192;-68
2023/01/09 11:59:14;;;;;;;7.47;2.13;;;9.00;99.90;;;;;;5108096;28;20210;-67
2023/01/09 12:02:21;;;;;;;5.33;2.30;;;9.10;99.90;;;;;;5075758;28;20275;-67
2023/01/09 12:04:54;;;;;;;3.50;2.13;;;9.10;99.90;;;;;;5073980;28;20542;-67
2023/01/09 12:07:47;;;;;;;6.37;2.20;;;9.10;99.90;;;;;;5074176;28;20192;-68
2023/01/09 12:10:34;;;;;;;9.40;2.87;;;9.20;99.90;;;;;;5075414;28;20531;-68
2023/01/09 12:13:11;;;;;;;3.83;2.30;;;9.20;99.90;;;;;;5074511;28;20635;-68
2023/01/09 12:15:51;;;;;;;10.07;2.63;;;9.30;99.90;;;;;;5075161;28;20219;-67
2023/01/09 12:18:36;;;;;;;6.17;2.57;;;9.30;99.90;;;;;;5073804;28;20578;-68
2023/01/09 12:21:20;;;;;;;7.23;2.40;;;9.40;99.90;;;;;;5074925;28;20245;-68
2023/01/09 12:24:03;;;;;;;5.97;2.80;;;9.40;99.90;;;;;;5075206;28;20186;-67
2023/01/09 12:26:33;;;;;;;9.83;2.33;;;9.30;99.90;;;;;;5075680;28;20634;-67
2023/01/09 12:29:25;;;;;;;5.20;2.50;;;9.10;99.90;;;;;;5075253;28;20172;-68
2023/01/09 12:32:12;;;;;;;11.63;2.83;;;9.10;99.90;;;;;;5074877;28;20223;-67
2023/01/09 12:34:58;;;;;;;9.83;2.60;;;9.10;99.90;;;;;;5074120;28;20192;-67
2023/01/09 12:37:59;;;;;;;9.37;2.90;;;9.20;99.90;;;;;;5074921;28;20198;-67
2023/01/09 12:40:53;;;;;;;10.80;3.30;;;9.30;99.90;;;;;;5073949;28;20512;-67
2023/01/09 12:43:29;;;;;;;6.80;2.93;;;9.30;99.90;;;;;;5074923;28;20195;-68
2023/01/09 12:46:13;;;;;;;6.57;2.70;;;9.20;99.90;;;;;;5074673;28;20187;-67
2023/01/09 12:49:07;;;;;;;13.77;2.73;;;9.20;99.90;;;;;;5074725;28;20237;-67
2023/01/09 12:51:41;;;;;;;8.63;3.30;;;9.10;99.90;;;;;;5074598;28;20275;-67
2023/01/09 12:54:15;;;;;;;10.63;3.20;;;9.10;99.90;;;;;;5072985;28;20188;-68
2023/01/09 12:56:48;;;;;;;10.47;3.27;;;9.10;99.90;;;;;;5072885;28;20206;-67
2023/01/09 12:59:29;;;;;;;17.07;3.50;;;9.20;99.90;;;;;;5072887;28;20211;-68
2023/01/09 13:02:06;;;;;;;11.00;3.37;;;9.20;99.90;;;;;;5074039;28;20274;-67
2023/01/09 13:04:41;;;;;;;9.67;3.60;;;9.10;99.90;;;;;;5074232;28;20184;-68
2023/01/09 13:07:17;;;;;;;5.50;3.43;;;9.10;99.90;;;;;;5073887;28;20194;-67
2023/01/09 13:09:50;;;;;;;13.07;4.17;;;9.00;99.90;;;;;;5074343;28;20199;-68
2023/01/09 13:12:21;;;;;;;10.33;3.57;;;8.90;99.90;;;;;;5074099;28;20566;-67
2023/01/09 13:14:55;;;;;;;12.97;3.40;;;8.80;99.90;;;;;;5074074;28;20223;-67
2023/01/09 13:17:27;;;;;;;14.20;3.70;;;8.80;99.90;;;;;;5073913;28;20648;-68
2023/01/09 13:19:57;;;;;;;11.70;3.77;;;9.00;99.90;;;;;;5073956;28;20212;-68
2023/01/09 13:22:28;;;;;;;11.77;3.40;;;9.20;99.90;;;;;;5055890;28;20202;-68
2023/01/09 13:25:27;;;;;;;15.03;3.30;;;9.40;99.90;;;;;;5073801;28;20634;-68
2023/01/09 13:27:59;;;;;;;7.00;3.00;;;9.60;99.90;;;;;;5074059;28;20195;-67
2023/01/09 13:30:44;;;;;;;11.67;3.00;;;9.80;99.90;;;;;;5106239;28;20192;-68
2023/01/09 13:33:19;;;;;;;6.17;2.47;;;9.80;99.90;;;;;;5074065;28;20514;-68
2023/01/09 13:35:51;;;;;;;9.17;2.67;;;9.80;99.90;;;;;;5073695;28;20203;-68
2023/01/09 13:38:22;;;;;;;14.50;2.87;;;9.60;99.90;;;;;;5073605;28;20642;-68
2023/01/09 13:43:56;;;;;;;11.47;3.23;;;9.30;99.90;;;;;;5073574;28;20187;-68
2023/01/09 13:46:37;;;;;;;8.03;2.93;;;9.20;99.90;;;;;;5072425;28;20183;-68
2023/01/09 13:49:07;;;;;;;12.50;3.10;;;9.10;99.90;;;;;;5073388;28;20196;-68
2023/01/09 13:51:57;;;;;;;15.23;3.73;;;9.00;99.90;;;;;;5073203;28;20742;-68
2023/01/09 13:55:18;;;;;;;11.67;3.23;;;8.90;99.90;;;;;;5072010;28;20188;-68